createdAt,value
2023-03-11T00:00:10.229Z,0.94
2023-03-11T00:01:10.295Z,0.66
2023-03-11T00:02:10.331Z,0.50
2023-03-11T00:03:10.358Z,0.68
2023-03-11T00:04:10.411Z,0.24
2023-03-11T00:05:10.480Z,0.34
2023-03-11T00:06:10.521Z,0.47
2023-03-11T00:07:10.570Z,0.34
2023-03-11T00:08:10.635Z,0.29
2023-03-11T00:09:10.705Z,0.54
2023-03-11T00:10:10.757Z,0.57
2023-03-11T00:11:10.823Z,0.52
2023-03-11T00:12:10.867Z,0.54
2023-03-11T00:13:10.935Z,0.26
2023-03-11T00:14:11.054Z,0.49
2023-03-11T00:15:11.037Z,0.57
2023-03-11T00:16:11.133Z,0.46
2023-03-11T00:17:11.145Z,0.35
2023-03-11T00:18:11.205Z,0.33
2023-03-11T00:19:11.246Z,0.61
2023-03-11T00:20:11.266Z,0.56
2023-03-11T00:21:11.320Z,0.21
2023-03-11T00:22:11.373Z,0.56
2023-03-11T00:23:11.407Z,0.51
2023-03-11T00:24:11.448Z,0.43
2023-03-11T00:25:11.482Z,0.45
2023-03-11T00:26:11.514Z,0.33
2023-03-11T00:27:11.538Z,0.45
2023-03-11T00:28:11.574Z,0.37
2023-03-11T00:29:11.589Z,0.30
2023-03-11T00:30:11.615Z,0.34
2023-03-11T00:31:11.674Z,0.19
2023-03-11T00:32:11.677Z,1.55
2023-03-11T00:33:11.697Z,0.41
2023-03-11T00:34:11.700Z,0.45
2023-03-11T00:35:11.754Z,0.31
2023-03-11T00:36:11.863Z,0.55
2023-03-11T00:37:11.916Z,0.30
2023-03-11T00:38:12.755Z,0.53
2023-03-11T00:39:12.020Z,0.61
2023-03-11T00:40:12.060Z,0.36
2023-03-11T00:41:12.106Z,0.49
2023-03-11T00:42:12.147Z,0.34
2023-03-11T00:43:12.201Z,0.44
2023-03-11T00:44:12.225Z,0.28
2023-03-11T00:45:12.285Z,0.29
2023-03-11T00:46:12.362Z,0.33
2023-03-11T00:47:12.394Z,0.50
2023-03-11T00:48:12.454Z,0.30
2023-03-11T00:49:12.511Z,0.35
2023-03-11T00:50:12.570Z,0.21
2023-03-11T00:51:12.720Z,0.25
2023-03-11T00:52:12.684Z,0.30
2023-03-11T00:53:12.736Z,0.44
2023-03-11T00:54:12.778Z,0.43
2023-03-11T00:55:12.805Z,0.12
2023-03-11T00:56:12.844Z,0.18
2023-03-11T00:57:12.856Z,0.31
2023-03-11T00:58:12.944Z,0.49
2023-03-11T00:59:12.984Z,0.34
2023-03-11T01:00:13.008Z,0.24
2023-03-11T01:01:13.049Z,0.25
2023-03-11T01:02:13.040Z,0.24
2023-03-11T01:03:13.052Z,0.34
2023-03-11T01:04:13.124Z,0.23
2023-03-11T01:05:13.100Z,0.14
2023-03-11T01:06:13.107Z,0.18
2023-03-11T01:07:13.139Z,0.09
2023-03-11T01:08:13.151Z,0.38
2023-03-11T01:09:13.183Z,0.31
2023-03-11T01:10:13.215Z,0.22
2023-03-11T01:11:13.231Z,0.22
2023-03-11T01:12:13.276Z,0.19
2023-03-11T01:13:13.310Z,0.30
2023-03-11T01:14:13.455Z,0.24
2023-03-11T01:15:13.373Z,0.20
2023-03-11T01:16:13.503Z,0.23
2023-03-11T01:17:13.417Z,0.07
2023-03-11T01:18:13.448Z,0.21
2023-03-11T01:19:13.447Z,0.20
2023-03-11T01:20:13.491Z,0.18
2023-03-11T01:21:13.489Z,0.29
2023-03-11T01:22:13.518Z,0.06
2023-03-11T01:23:13.561Z,0.34
2023-03-11T01:24:13.550Z,0.19
2023-03-11T01:25:13.597Z,0.23
2023-03-11T01:26:13.665Z,0.07
2023-03-11T01:27:13.840Z,0.16
2023-03-11T01:28:14.009Z,0.38
2023-03-11T01:29:14.156Z,0.12
2023-03-11T01:30:14.333Z,0.27
2023-03-11T01:31:14.509Z,0.20
2023-03-11T01:32:14.691Z,0.21
2023-03-11T01:33:14.786Z,0.07
2023-03-11T01:34:14.953Z,0.10
2023-03-11T01:35:15.092Z,0.23
2023-03-11T01:58:19.263Z,0.65
2023-03-11T01:59:19.096Z,0.18
2023-03-11T02:00:19.250Z,0.12
2023-03-11T02:01:19.385Z,0.18
2023-03-11T02:02:19.418Z,0.22
2023-03-11T02:03:19.548Z,0.22
2023-03-11T02:04:19.511Z,0.09
2023-03-11T02:05:19.553Z,0.16
2023-03-11T02:06:19.594Z,0.41
2023-03-11T02:07:19.634Z,0.34
2023-03-11T02:08:19.684Z,0.05
2023-03-11T02:09:19.714Z,0.17
2023-03-11T02:10:19.765Z,0.05
2023-03-11T02:11:19.778Z,0.23
2023-03-11T02:12:19.818Z,0.20
2023-03-11T02:13:19.860Z,0.28
2023-03-11T02:14:19.887Z,0.04
2023-03-11T02:15:19.932Z,0.11
2023-03-11T02:16:20.004Z,0.22
2023-03-11T02:17:20.024Z,0.15
2023-03-11T02:18:20.061Z,0.07
2023-03-11T02:19:20.111Z,0.14
2023-03-11T02:20:20.156Z,0.19
2023-03-11T02:21:20.220Z,0.10
2023-03-11T02:22:20.290Z,0.04
2023-03-11T02:23:20.351Z,0.00
2023-03-11T02:24:20.403Z,0.25
2023-03-11T02:26:20.491Z,0.13
2023-03-11T02:27:20.546Z,0.02
2023-03-11T02:28:20.565Z,0.07
2023-03-11T02:29:20.632Z,0.11
2023-03-11T02:30:20.661Z,0.05
2023-03-11T02:31:20.687Z,0.13
2023-03-11T02:32:20.786Z,0.20
2023-03-11T02:33:20.735Z,0.06
2023-03-11T05:20:28.963Z,0.29
2023-03-11T05:21:29.016Z,0.28
2023-03-11T05:22:29.078Z,0.30
2023-03-11T05:23:29.116Z,0.13
2023-03-11T05:24:29.145Z,0.45
2023-03-11T05:25:29.171Z,0.40
2023-03-11T05:26:29.193Z,0.18
2023-03-11T05:27:29.198Z,0.23
2023-03-11T05:28:29.218Z,0.35
2023-03-11T05:29:29.247Z,0.33
2023-03-11T05:30:29.273Z,0.23
2023-03-11T05:31:29.395Z,0.26
2023-03-11T05:32:29.352Z,0.12
2023-03-11T05:33:29.323Z,0.09
2023-03-11T05:34:29.343Z,0.46
2023-03-11T05:35:29.368Z,0.24
2023-03-11T05:36:29.416Z,0.14
2023-03-11T05:37:29.472Z,0.34
2023-03-11T05:38:29.537Z,0.47
2023-03-11T05:39:29.606Z,0.35
2023-03-11T05:40:29.657Z,0.35
2023-03-11T05:41:29.717Z,0.38
2023-03-11T05:42:29.772Z,0.29
2023-03-11T05:43:29.887Z,0.29
2023-03-11T05:44:29.875Z,0.38
2023-03-11T05:45:29.898Z,0.48
2023-03-11T05:46:29.990Z,0.33
2023-03-11T05:47:29.970Z,0.40
2023-03-11T05:48:30.027Z,0.45
2023-03-11T05:49:30.055Z,0.15
2023-03-11T05:50:30.077Z,0.25
2023-03-11T05:51:30.111Z,0.26
2023-03-11T05:52:30.195Z,0.31
2023-03-11T05:53:30.233Z,0.37
2023-03-11T05:54:30.254Z,0.58
2023-03-11T05:55:30.287Z,0.44
2023-03-11T05:56:30.335Z,1.19
2023-03-11T05:57:30.388Z,1.52
2023-03-11T05:58:30.476Z,1.39
2023-03-11T05:59:30.502Z,2.10
2023-03-11T06:00:30.537Z,1.62
2023-03-11T06:01:30.614Z,1.22
2023-03-11T06:02:30.703Z,0.79
2023-03-11T06:03:30.807Z,0.60
2023-03-11T06:04:31.033Z,0.69
2023-03-11T06:05:30.975Z,1.12
2023-03-11T06:06:31.033Z,1.02
2023-03-11T06:07:31.171Z,0.58
2023-03-11T06:08:31.148Z,0.25
2023-03-11T06:09:31.213Z,0.47
2023-03-11T06:10:31.309Z,0.55
2023-03-11T06:11:31.415Z,0.58
2023-03-11T06:12:31.493Z,0.41
2023-03-11T06:13:31.576Z,0.20
2023-03-11T06:14:31.690Z,0.32
2023-03-11T06:15:31.769Z,0.55
2023-03-11T06:16:31.889Z,0.59
2023-03-11T06:17:31.945Z,0.44
2023-03-11T06:18:32.019Z,0.53
2023-03-11T06:19:32.087Z,1.39
2023-03-11T06:20:32.151Z,5.27
2023-03-11T06:21:32.221Z,3.29
2023-03-11T06:22:32.281Z,4.95
2023-03-11T06:23:32.396Z,8.34
2023-03-11T06:24:32.368Z,26.18
2023-03-11T06:25:32.424Z,26.80
2023-03-11T06:26:32.471Z,9.53
2023-03-11T06:27:32.527Z,2.16
2023-03-11T06:28:32.569Z,1.63
2023-03-11T06:29:32.619Z,1.67
2023-03-11T06:30:32.663Z,1.15
2023-03-11T06:31:32.796Z,5.74
2023-03-11T06:32:32.784Z,5.51
2023-03-11T06:33:32.791Z,3.06
2023-03-11T06:34:32.815Z,3.56
2023-03-11T06:35:32.890Z,3.46
2023-03-11T06:36:32.867Z,2.37
2023-03-11T06:37:32.879Z,2.69
2023-03-11T06:38:32.903Z,5.30
2023-03-11T06:39:32.944Z,0.77
2023-03-11T06:40:33.006Z,0.46
2023-03-11T06:41:33.110Z,0.58
2023-03-11T06:42:33.193Z,0.39
2023-03-11T06:44:33.372Z,0.89
2023-03-11T06:45:33.472Z,0.61
2023-03-11T06:46:33.495Z,0.51
2023-03-11T06:47:33.573Z,0.54
2023-03-11T06:48:33.661Z,0.65
2023-03-11T08:11:39.120Z,1.67
2023-03-11T08:12:39.247Z,1.60
2023-03-11T08:13:39.559Z,1.58
2023-03-11T08:14:39.736Z,1.54
2023-03-11T08:15:39.897Z,1.36
2023-03-11T08:16:40.033Z,5.16
2023-03-11T08:17:40.300Z,8.14
2023-03-11T08:18:40.442Z,6.13
2023-03-11T08:19:40.701Z,2.67
2023-03-11T08:20:40.854Z,3.33
2023-03-11T08:21:41.073Z,2.89
2023-03-11T08:22:55.616Z,1.71
2023-03-11T08:23:42.280Z,1.47
2023-03-11T08:24:41.206Z,1.04
2023-03-11T08:25:41.182Z,2.80
2023-03-11T08:26:41.181Z,1.72
2023-03-11T08:27:41.158Z,2.10
2023-03-11T08:28:41.148Z,2.05
2023-03-11T08:29:41.136Z,2.50
2023-03-11T08:30:42.097Z,3.21
2023-03-11T08:31:41.107Z,2.11
2023-03-11T08:32:41.147Z,2.13
2023-03-11T08:33:41.207Z,3.73
2023-03-11T08:34:41.390Z,0.83
2023-03-11T08:35:41.590Z,0.86
2023-03-11T08:36:41.817Z,1.72
2023-03-11T08:37:42.043Z,2.58
2023-03-11T08:38:42.257Z,2.82
2023-03-11T08:39:42.400Z,1.84
2023-03-11T08:40:42.556Z,1.70
2023-03-11T08:41:42.743Z,1.68
2023-03-11T08:42:43.831Z,0.82
2023-03-11T08:43:42.935Z,1.06
2023-03-11T08:44:42.930Z,1.44
2023-03-11T08:45:42.958Z,1.98
2023-03-11T08:46:43.002Z,5.08
2023-03-11T08:47:42.950Z,2.62
2023-03-11T08:48:42.960Z,2.33
2023-03-11T08:49:42.963Z,2.74
2023-03-11T08:50:53.396Z,2.52
2023-03-11T08:51:43.942Z,1.60
2023-03-11T08:52:42.919Z,1.79
2023-03-11T08:53:42.909Z,1.55
2023-03-11T08:54:42.882Z,0.72
2023-03-11T08:55:42.858Z,0.87
2023-03-11T08:56:42.856Z,0.98
2023-03-11T08:57:42.852Z,1.35
2023-03-11T08:58:42.850Z,0.85
2023-03-11T08:59:42.828Z,0.94
2023-03-11T09:00:42.811Z,0.90
2023-03-11T09:01:42.788Z,0.63
2023-03-11T09:02:42.838Z,0.99
2023-03-11T09:03:42.774Z,0.97
2023-03-11T09:04:42.762Z,1.16
2023-03-11T09:05:42.827Z,1.13
2023-03-11T09:06:42.868Z,0.71
2023-03-11T09:07:42.911Z,0.80
2023-03-11T09:08:42.966Z,0.81
2023-03-11T09:09:43.027Z,0.83
2023-03-11T09:10:43.070Z,1.18
2023-03-11T09:11:43.107Z,0.77
2023-03-11T09:12:43.171Z,0.80
2023-03-11T09:13:43.238Z,0.84
2023-03-11T09:14:43.253Z,1.09
2023-03-11T09:15:43.289Z,0.96
2023-03-11T09:16:43.321Z,0.74
2023-03-11T09:17:43.333Z,1.34
2023-03-11T09:18:43.345Z,1.25
2023-03-11T09:19:43.383Z,1.67
2023-03-11T09:20:43.427Z,1.22
2023-03-11T09:21:43.448Z,1.32
2023-03-11T09:22:43.481Z,0.96
2023-03-11T09:23:44.548Z,0.69
2023-03-11T09:24:43.599Z,0.66
2023-03-11T09:25:43.626Z,1.00
2023-03-11T09:26:43.700Z,0.76
2023-03-11T09:27:43.751Z,0.75
2023-03-11T09:28:43.818Z,0.97
2023-03-11T09:29:43.889Z,0.75
2023-03-11T09:30:43.948Z,0.67
2023-03-11T09:31:44.096Z,0.75
2023-03-11T09:32:44.101Z,0.82
2023-03-11T09:33:44.127Z,0.40
2023-03-11T09:34:44.180Z,0.64
2023-03-11T09:35:44.264Z,0.72
2023-03-11T09:36:44.263Z,0.99
2023-03-11T09:37:44.290Z,0.99
2023-03-11T09:38:44.327Z,0.86
2023-03-11T09:39:44.339Z,0.97
2023-03-11T09:40:46.873Z,1.27
2023-03-11T09:41:57.146Z,1.33
2023-03-11T09:42:45.509Z,1.12
2023-03-11T09:43:44.497Z,1.26
2023-03-11T09:45:44.464Z,0.43
2023-03-11T09:46:44.527Z,0.72
2023-03-11T09:47:44.423Z,0.74
2023-03-11T09:48:44.401Z,0.78
2023-03-11T09:49:44.381Z,1.07
2023-03-11T09:50:44.359Z,0.95
2023-03-11T09:51:44.337Z,1.20
2023-03-11T11:32:49.052Z,0.71
2023-03-11T11:33:49.113Z,0.50
2023-03-11T11:34:49.370Z,0.22
2023-03-11T11:35:49.547Z,0.36
2023-03-11T11:36:49.649Z,0.47
2023-03-11T11:37:49.813Z,0.37
2023-03-11T11:38:50.072Z,0.24
2023-03-11T11:39:50.273Z,0.50
2023-03-11T11:40:50.481Z,0.24
2023-03-11T11:41:50.674Z,0.15
2023-03-11T11:42:50.891Z,0.23
2023-03-11T11:43:51.084Z,0.15
2023-03-11T11:44:51.296Z,0.45
2023-03-11T11:45:51.558Z,0.23
2023-03-11T11:46:51.641Z,0.20
2023-03-11T11:47:51.741Z,0.32
2023-03-11T11:48:51.897Z,0.30
2023-03-11T11:49:52.035Z,0.27
2023-03-11T11:50:52.196Z,0.11
2023-03-11T11:51:52.320Z,0.42
2023-03-11T11:52:52.508Z,0.35
2023-03-11T11:53:52.639Z,0.40
2023-03-11T11:54:52.803Z,0.47
2023-03-11T11:55:53.035Z,0.35
2023-03-11T11:56:53.221Z,0.22
2023-03-11T11:57:53.420Z,0.84
2023-03-11T11:58:53.573Z,0.34
2023-03-11T11:59:54.010Z,0.50
2023-03-11T12:00:53.662Z,0.59
2023-03-11T12:01:53.734Z,0.53
2023-03-11T12:02:53.798Z,0.48
2023-03-11T12:03:53.902Z,1.05
2023-03-11T12:04:53.913Z,0.68
2023-03-11T12:05:56.131Z,0.30
2023-03-11T12:06:54.000Z,0.54
2023-03-11T12:07:53.996Z,0.25
2023-03-11T12:08:54.017Z,0.64
2023-03-11T12:09:54.019Z,0.87
2023-03-11T12:10:54.015Z,0.58
2023-03-11T12:11:53.998Z,0.56
2023-03-11T12:12:54.015Z,0.38
2023-03-11T12:13:54.031Z,1.26
2023-03-11T12:14:54.045Z,0.57
2023-03-11T12:15:54.072Z,0.72
2023-03-11T12:16:54.061Z,0.48
2023-03-11T12:17:54.062Z,0.45
2023-03-11T12:18:54.070Z,0.43
2023-03-11T12:19:54.087Z,0.41
2023-03-11T12:20:54.096Z,0.60
2023-03-11T12:21:54.261Z,0.28
2023-03-11T12:22:54.091Z,0.24
2023-03-11T12:23:55.149Z,0.20
2023-03-11T12:24:54.105Z,0.23
2023-03-11T12:25:54.117Z,0.33
2023-03-11T12:26:54.134Z,0.18
2023-03-11T12:27:54.133Z,0.35
2023-03-11T12:28:54.132Z,0.41
2023-03-11T12:29:54.127Z,0.23
2023-03-11T12:30:54.149Z,0.11
2023-03-11T12:31:54.155Z,0.14
2023-03-11T12:32:54.280Z,0.30
2023-03-11T12:33:54.151Z,0.16
2023-03-11T12:34:54.138Z,0.61
2023-03-11T12:35:54.146Z,0.24
2023-03-11T12:36:54.141Z,0.20
2023-03-11T12:37:54.113Z,0.38
2023-03-11T12:38:54.120Z,0.36
2023-03-11T12:39:54.111Z,0.26
2023-03-11T12:40:54.115Z,0.29
2023-03-11T12:41:54.122Z,0.33
2023-03-11T12:42:54.108Z,0.52
2023-03-11T12:43:54.100Z,0.47
2023-03-11T12:44:54.122Z,0.43
2023-03-11T12:45:54.119Z,0.24
2023-03-11T12:46:54.199Z,0.23
2023-03-11T12:47:54.131Z,0.41
2023-03-11T12:48:54.132Z,0.09
2023-03-11T12:49:54.139Z,0.19
2023-03-11T12:50:54.164Z,0.16
2023-03-11T12:51:54.174Z,0.18
2023-03-11T12:52:54.221Z,0.26
2023-03-11T12:53:54.226Z,0.21
2023-03-11T12:54:54.273Z,0.20
2023-03-11T12:55:54.322Z,0.24
2023-03-11T12:56:54.376Z,0.28
2023-03-11T12:57:54.447Z,0.35
2023-03-11T12:58:54.501Z,0.30
2023-03-11T12:59:54.578Z,0.18
2023-03-11T13:00:54.658Z,0.46
2023-03-11T13:01:54.800Z,0.63
2023-03-11T13:02:54.820Z,0.63
2023-03-11T13:03:54.849Z,0.42
2023-03-11T13:04:54.915Z,0.23
2023-03-11T13:05:54.972Z,0.34
2023-03-11T13:06:55.003Z,0.25
2023-03-11T13:07:55.053Z,0.21
2023-03-11T13:08:55.206Z,0.24
2023-03-11T13:09:55.390Z,0.39
2023-03-11T13:10:55.562Z,0.32
2023-03-11T13:11:55.737Z,0.30
2023-03-11T13:12:55.841Z,0.10
2023-03-11T13:13:55.920Z,0.16
2023-03-11T13:14:55.968Z,0.25
2023-03-11T13:15:56.049Z,0.28
2023-03-11T13:16:56.066Z,0.51
2023-03-11T13:17:56.122Z,0.37
2023-03-11T13:18:56.159Z,0.31
2023-03-11T13:19:56.228Z,0.30
2023-03-11T13:20:56.299Z,0.37
2023-03-11T13:21:56.328Z,0.88
2023-03-11T13:22:56.345Z,0.14
2023-03-11T13:23:56.386Z,0.48
2023-03-11T13:24:56.435Z,0.41
2023-03-11T13:25:56.503Z,0.36
2023-03-11T13:26:56.555Z,0.29
2023-03-11T13:27:56.595Z,0.24
2023-03-11T13:28:56.641Z,0.18
2023-03-11T13:29:56.679Z,0.40
2023-03-11T13:30:56.746Z,0.22
2023-03-11T13:31:56.781Z,0.37
2023-03-11T13:32:56.828Z,0.29
2023-03-11T13:33:56.846Z,0.06
2023-03-11T13:34:56.882Z,0.18
2023-03-11T13:35:56.995Z,0.27
2023-03-11T13:36:57.026Z,0.43
2023-03-11T14:22:59.075Z,0.53
2023-03-11T14:23:59.326Z,0.40
2023-03-11T14:24:59.431Z,0.43
2023-03-11T14:25:59.623Z,0.53
2023-03-11T14:26:59.791Z,0.28
2023-03-11T14:28:00.001Z,0.24
2023-03-11T14:29:00.177Z,0.18
2023-03-11T14:30:00.340Z,0.24
2023-03-11T14:31:00.496Z,0.33
2023-03-11T14:32:00.790Z,0.63
2023-03-11T18:46:08.980Z,2.86
2023-03-11T19:00:08.952Z,4.04
2023-03-11T19:01:09.062Z,2.76
2023-03-11T19:02:09.110Z,3.21
2023-03-11T19:03:09.157Z,3.39
2023-03-11T19:04:09.192Z,3.97
2023-03-11T19:05:09.376Z,3.68
2023-03-11T19:06:09.309Z,3.28
2023-03-11T19:07:09.367Z,2.77
2023-03-11T19:08:09.448Z,3.51
2023-03-11T19:09:09.534Z,3.09
2023-03-11T19:10:09.640Z,2.77
2023-03-11T19:11:09.750Z,2.69
2023-03-11T19:12:09.847Z,2.73
2023-03-11T19:13:09.957Z,2.62
2023-03-11T19:14:10.068Z,2.66
2023-03-11T19:15:10.160Z,3.14
2023-03-11T19:16:10.283Z,3.59
2023-03-11T19:17:10.439Z,3.05
2023-03-11T19:18:10.504Z,3.23
2023-03-11T19:19:11.947Z,3.04
2023-03-11T19:20:10.686Z,2.79
2023-03-11T19:21:10.831Z,3.06
2023-03-11T19:22:10.884Z,3.45
2023-03-11T19:23:10.947Z,3.16
2023-03-11T19:24:11.037Z,3.19
2023-03-11T19:25:11.108Z,2.94
2023-03-11T19:26:11.200Z,3.15
2023-03-11T19:27:11.220Z,2.66
2023-03-11T19:28:11.321Z,2.99
2023-03-11T19:29:11.424Z,2.93
2023-03-11T19:30:11.481Z,3.40
2023-03-11T19:31:11.596Z,3.67
2023-03-11T19:32:11.587Z,3.53
2023-03-11T19:33:11.671Z,2.81
2023-03-11T19:34:11.745Z,3.11
2023-03-11T19:35:11.822Z,3.43
2023-03-11T19:36:11.961Z,3.34
2023-03-11T19:37:12.029Z,2.70
2023-03-11T19:38:12.103Z,3.44
2023-03-11T19:39:12.210Z,3.12
2023-03-11T19:40:12.308Z,3.48
2023-03-11T19:42:12.479Z,3.14
2023-03-11T20:20:19.062Z,3.67
2023-03-11T20:21:19.272Z,3.96
2023-03-11T20:22:19.481Z,4.12
2023-03-11T20:23:19.624Z,3.94
2023-03-11T20:24:19.892Z,3.65
2023-03-11T20:25:20.033Z,4.03
2023-03-11T20:26:20.159Z,3.52
2023-03-11T20:27:20.281Z,3.70
2023-03-11T20:28:20.293Z,3.50
2023-03-11T20:29:20.353Z,3.82
2023-03-11T20:30:20.428Z,3.62
2023-03-11T20:31:20.545Z,3.72
2023-03-11T20:32:20.468Z,3.50
2023-03-11T20:33:20.511Z,3.51
2023-03-11T20:34:20.636Z,3.15
2023-03-11T20:35:20.600Z,3.37
2023-03-11T20:36:20.689Z,3.66
2023-03-11T20:37:20.656Z,3.22
2023-03-11T20:38:20.774Z,3.46
2023-03-11T20:39:20.795Z,3.48
2023-03-11T20:40:20.900Z,3.77
2023-03-11T20:41:20.874Z,3.45
2023-03-11T20:42:20.991Z,3.11
2023-03-11T20:43:21.080Z,3.24
2023-03-11T20:44:21.190Z,3.19
2023-03-11T20:45:21.312Z,2.71
2023-03-11T20:46:21.360Z,3.01
2023-03-11T20:47:21.529Z,3.56
2023-03-11T20:48:21.505Z,2.59
2023-03-11T20:49:21.699Z,3.42
2023-03-11T20:50:21.796Z,3.39
2023-03-11T20:51:21.830Z,3.24
2023-03-11T20:52:21.906Z,2.91
2023-03-11T20:53:21.945Z,3.36
2023-03-11T20:54:22.039Z,3.07
2023-03-11T20:55:22.061Z,2.80
2023-03-11T20:56:22.102Z,3.08
2023-03-11T20:57:22.211Z,3.51
2023-03-11T20:58:22.304Z,4.14
2023-03-11T20:59:22.378Z,2.77
2023-03-11T21:00:22.434Z,2.90
2023-03-11T21:01:22.695Z,3.07
2023-03-11T21:02:22.676Z,3.15
2023-03-11T21:03:22.765Z,2.92
2023-03-11T21:04:22.742Z,2.73
2023-03-11T21:05:22.835Z,2.64
2023-03-11T21:06:22.957Z,2.73
2023-03-11T21:07:23.079Z,3.72
2023-03-11T21:08:23.113Z,3.30
2023-03-11T21:09:23.267Z,3.54
2023-03-11T21:10:23.290Z,2.75
2023-03-11T21:11:23.470Z,2.82
2023-03-11T21:12:23.523Z,3.09
2023-03-11T21:13:23.685Z,3.42
2023-03-11T21:14:23.725Z,2.94
2023-03-11T21:15:23.813Z,2.30
2023-03-11T21:16:24.037Z,3.09
2023-03-11T21:17:24.047Z,2.80
2023-03-11T21:18:24.126Z,2.70
2023-03-11T21:19:24.283Z,2.50
2023-03-11T21:20:24.322Z,2.60
2023-03-11T21:21:24.320Z,2.50
2023-03-11T21:22:24.403Z,3.04
2023-03-11T21:23:24.464Z,2.41
2023-03-11T21:24:24.612Z,2.35
2023-03-11T21:25:24.695Z,2.86
2023-03-11T21:26:24.728Z,2.66
2023-03-11T21:27:24.849Z,3.19
2023-03-11T21:28:24.870Z,3.44
2023-03-11T21:34:25.422Z,2.63
2023-03-11T21:36:25.732Z,2.68
2023-03-11T22:16:29.047Z,2.86
2023-03-11T22:17:29.232Z,3.01
2023-03-11T22:18:29.296Z,2.88
2023-03-11T22:19:29.329Z,2.93
2023-03-11T22:20:29.330Z,2.89
2023-03-11T22:21:29.548Z,2.80
2023-03-11T22:22:29.469Z,2.85
2023-03-11T22:23:29.547Z,2.77
2023-03-11T22:24:29.649Z,3.46
2023-03-11T22:25:29.726Z,3.51
2023-03-11T22:26:29.821Z,3.11
2023-03-11T22:27:29.918Z,2.83
2023-03-11T22:28:29.988Z,3.25
2023-03-11T22:29:30.082Z,3.18
2023-03-11T22:30:30.177Z,3.50
2023-03-11T22:31:30.321Z,3.44
2023-03-11T22:32:30.392Z,3.10
2023-03-11T22:33:30.436Z,2.63
2023-03-11T22:34:30.522Z,2.70
2023-03-11T22:35:30.650Z,3.11
2023-03-11T22:36:30.682Z,3.60
2023-03-11T22:37:30.774Z,3.87
2023-03-11T22:38:30.863Z,3.41
2023-03-11T22:39:30.994Z,3.24
2023-03-11T22:40:31.054Z,3.66
2023-03-11T22:41:31.163Z,3.29
2023-03-11T22:42:31.281Z,3.30
2023-03-11T22:43:31.371Z,3.43
2023-03-11T22:44:31.473Z,3.90
2023-03-11T22:45:31.542Z,3.94
2023-03-11T22:46:31.621Z,3.76
2023-03-11T22:47:31.701Z,3.41
2023-03-11T22:48:31.789Z,3.76
2023-03-11T22:49:31.876Z,3.43
2023-03-11T22:50:31.991Z,4.14
2023-03-11T22:51:32.053Z,3.43
2023-03-11T22:52:32.128Z,3.33
2023-03-11T22:53:32.211Z,3.72
2023-03-11T22:54:32.328Z,3.96
2023-03-11T22:55:32.361Z,3.91
2023-03-11T22:56:32.440Z,3.29
2023-03-11T22:57:32.544Z,3.62
2023-03-11T22:59:32.660Z,4.01
2023-03-11T23:00:32.749Z,4.11
2023-03-11T23:01:32.906Z,4.52
2023-03-11T23:02:32.923Z,4.62
2023-03-11T23:03:33.109Z,3.98
2023-03-11T23:04:33.076Z,4.34
2023-03-11T23:05:33.149Z,4.40
2023-03-11T23:06:33.221Z,4.25
2023-03-11T23:07:33.302Z,4.28
2023-03-11T23:08:33.375Z,4.18
2023-03-11T23:09:33.451Z,3.75
2023-03-11T23:10:33.529Z,4.08
2023-03-11T23:11:33.603Z,4.75
2023-03-11T23:12:33.707Z,4.73
2023-03-11T23:13:33.791Z,4.29
2023-03-11T23:14:44.040Z,4.37
2023-03-11T23:15:34.910Z,4.76
2023-03-11T23:16:33.980Z,4.29
2023-03-11T23:17:34.028Z,4.01
2023-03-11T23:18:34.002Z,4.72
2023-03-11T23:19:34.036Z,4.27
2023-03-11T23:20:34.063Z,4.22
2023-03-11T23:21:34.120Z,4.73
2023-03-11T23:22:34.144Z,4.43
2023-03-11T23:23:34.188Z,3.83
2023-03-11T23:24:34.257Z,4.68
2023-03-11T23:25:34.296Z,4.34
2023-03-11T23:26:34.363Z,4.49
2023-03-11T23:27:34.463Z,4.96
2023-03-11T23:28:34.548Z,4.72
2023-03-11T23:29:34.626Z,4.73
2023-03-11T23:30:34.757Z,4.69
2023-03-11T23:31:34.799Z,5.11
2023-03-11T23:32:34.915Z,3.96
2023-03-11T23:33:34.978Z,4.80
2023-03-11T23:34:35.056Z,5.22
2023-03-11T23:35:35.166Z,3.80
2023-03-11T23:36:35.223Z,5.25
2023-03-11T23:37:35.304Z,4.84
2023-03-11T23:38:35.395Z,4.63
2023-03-11T23:39:35.465Z,4.26
2023-03-11T23:40:35.570Z,5.24
2023-03-11T23:41:35.645Z,4.44
2023-03-11T23:42:35.727Z,4.94
2023-03-11T23:43:35.819Z,5.43
2023-03-11T23:44:35.929Z,4.40
2023-03-11T23:45:35.999Z,4.51
2023-03-11T23:46:36.110Z,4.22
2023-03-11T23:47:36.176Z,4.30
2023-03-11T23:48:36.256Z,5.26
2023-03-11T23:49:36.344Z,4.18
2023-03-11T23:50:36.416Z,4.27
2023-03-11T23:51:36.523Z,4.37
2023-03-11T23:52:36.614Z,4.26
2023-03-11T23:53:36.696Z,4.11
2023-03-11T23:54:36.795Z,4.70
2023-03-11T23:55:36.893Z,4.53
2023-03-11T23:57:37.086Z,3.88
2023-03-11T23:58:37.174Z,4.48
2023-03-11T23:59:37.257Z,4.10
